sensor_id;sensor_type;location;lat;lon;timestamp;P1;durP1;ratioP1;P2;durP2;ratioP2
46266;SDS011;31998;48.798;15.066;2023-07-29T00:00:32;2.40;;;2.20;;
46266;SDS011;31998;48.798;15.066;2023-07-29T00:02:58;2.13;;;2.10;;
46266;SDS011;31998;48.798;15.066;2023-07-29T00:05:23;2.50;;;1.70;;
46266;SDS011;31998;48.798;15.066;2023-07-29T00:07:48;6.73;;;1.90;;
46266;SDS011;31998;48.798;15.066;2023-07-29T00:10:13;3.80;;;1.77;;
46266;SDS011;31998;48.798;15.066;2023-07-29T00:12:39;2.20;;;2.20;;
46266;SDS011;31998;48.798;15.066;2023-07-29T00:15:04;1.90;;;1.80;;
46266;SDS011;31998;48.798;15.066;2023-07-29T00:17:29;1.73;;;1.73;;
46266;SDS011;31998;48.798;15.066;2023-07-29T00:19:55;2.43;;;2.07;;
46266;SDS011;31998;48.798;15.066;2023-07-29T00:22:20;1.57;;;1.57;;
46266;SDS011;31998;48.798;15.066;2023-07-29T00:24:50;1.80;;;1.80;;
46266;SDS011;31998;48.798;15.066;2023-07-29T00:27:15;2.20;;;2.10;;
46266;SDS011;31998;48.798;15.066;2023-07-29T00:29:41;2.50;;;2.17;;
46266;SDS011;31998;48.798;15.066;2023-07-29T00:32:06;1.73;;;1.63;;
46266;SDS011;31998;48.798;15.066;2023-07-29T00:34:32;1.90;;;1.90;;
46266;SDS011;31998;48.798;15.066;2023-07-29T00:36:57;2.00;;;1.90;;
46266;SDS011;31998;48.798;15.066;2023-07-29T00:39:22;1.90;;;1.90;;
46266;SDS011;31998;48.798;15.066;2023-07-29T00:41:48;3.50;;;2.30;;
46266;SDS011;31998;48.798;15.066;2023-07-29T00:44:13;2.73;;;2.53;;
46266;SDS011;31998;48.798;15.066;2023-07-29T00:46:38;1.83;;;1.83;;
46266;SDS011;31998;48.798;15.066;2023-07-29T00:49:05;1.90;;;1.90;;
46266;SDS011;31998;48.798;15.066;2023-07-29T00:51:30;2.93;;;2.23;;
46266;SDS011;31998;48.798;15.066;2023-07-29T00:53:55;2.60;;;2.43;;
46266;SDS011;31998;48.798;15.066;2023-07-29T00:56:21;2.30;;;2.20;;
46266;SDS011;31998;48.798;15.066;2023-07-29T00:58:46;1.97;;;1.97;;
46266;SDS011;31998;48.798;15.066;2023-07-29T01:01:12;3.13;;;2.37;;
46266;SDS011;31998;48.798;15.066;2023-07-29T01:03:37;2.67;;;2.57;;
46266;SDS011;31998;48.798;15.066;2023-07-29T01:06:11;5.60;;;2.20;;
46266;SDS011;31998;48.798;15.066;2023-07-29T01:08:42;7.53;;;2.33;;
46266;SDS011;31998;48.798;15.066;2023-07-29T01:13:37;2.37;;;2.30;;
46266;SDS011;31998;48.798;15.066;2023-07-29T01:16:10;3.43;;;2.00;;
46266;SDS011;31998;48.798;15.066;2023-07-29T01:18:38;2.17;;;2.03;;
46266;SDS011;31998;48.798;15.066;2023-07-29T01:21:04;2.23;;;2.13;;
46266;SDS011;31998;48.798;15.066;2023-07-29T01:23:33;9.47;;;2.40;;
46266;SDS011;31998;48.798;15.066;2023-07-29T01:25:58;2.80;;;2.53;;
46266;SDS011;31998;48.798;15.066;2023-07-29T01:28:24;2.47;;;2.37;;
46266;SDS011;31998;48.798;15.066;2023-07-29T01:30:50;2.20;;;2.10;;
46266;SDS011;31998;48.798;15.066;2023-07-29T01:35:48;2.20;;;2.10;;
46266;SDS011;31998;48.798;15.066;2023-07-29T01:38:18;2.83;;;2.73;;
46266;SDS011;31998;48.798;15.066;2023-07-29T01:40:44;1.67;;;1.67;;
46266;SDS011;31998;48.798;15.066;2023-07-29T01:43:10;2.40;;;2.20;;
46266;SDS011;31998;48.798;15.066;2023-07-29T01:45:36;2.23;;;2.13;;
46266;SDS011;31998;48.798;15.066;2023-07-29T01:48:04;2.37;;;2.30;;
46266;SDS011;31998;48.798;15.066;2023-07-29T01:50:30;2.60;;;2.00;;
46266;SDS011;31998;48.798;15.066;2023-07-29T01:52:57;1.90;;;1.90;;
46266;SDS011;31998;48.798;15.066;2023-07-29T01:55:22;2.10;;;2.10;;
46266;SDS011;31998;48.798;15.066;2023-07-29T01:57:47;2.90;;;2.80;;
46266;SDS011;31998;48.798;15.066;2023-07-29T02:00:12;1.90;;;1.90;;
46266;SDS011;31998;48.798;15.066;2023-07-29T02:02:38;2.20;;;2.10;;
46266;SDS011;31998;48.798;15.066;2023-07-29T02:05:03;3.13;;;2.80;;
46266;SDS011;31998;48.798;15.066;2023-07-29T02:07:28;2.20;;;2.20;;
46266;SDS011;31998;48.798;15.066;2023-07-29T02:09:53;2.07;;;1.97;;
46266;SDS011;31998;48.798;15.066;2023-07-29T02:12:19;4.33;;;1.30;;
46266;SDS011;31998;48.798;15.066;2023-07-29T02:14:44;2.13;;;2.10;;
46266;SDS011;31998;48.798;15.066;2023-07-29T02:17:10;2.00;;;2.00;;
46266;SDS011;31998;48.798;15.066;2023-07-29T02:19:35;3.00;;;2.70;;
46266;SDS011;31998;48.798;15.066;2023-07-29T02:22:00;3.23;;;3.10;;
46266;SDS011;31998;48.798;15.066;2023-07-29T02:24:25;2.73;;;2.63;;
46266;SDS011;31998;48.798;15.066;2023-07-29T02:26:51;2.90;;;2.13;;
46266;SDS011;31998;48.798;15.066;2023-07-29T02:29:16;2.63;;;2.00;;
46266;SDS011;31998;48.798;15.066;2023-07-29T02:31:41;2.13;;;2.13;;
46266;SDS011;31998;48.798;15.066;2023-07-29T02:34:06;2.37;;;2.27;;
46266;SDS011;31998;48.798;15.066;2023-07-29T02:36:32;2.67;;;2.57;;
46266;SDS011;31998;48.798;15.066;2023-07-29T02:38:57;2.10;;;2.10;;
46266;SDS011;31998;48.798;15.066;2023-07-29T02:41:22;2.37;;;2.27;;
46266;SDS011;31998;48.798;15.066;2023-07-29T02:43:48;2.87;;;2.63;;
46266;SDS011;31998;48.798;15.066;2023-07-29T02:46:13;2.90;;;2.80;;
46266;SDS011;31998;48.798;15.066;2023-07-29T02:48:38;3.40;;;2.70;;
46266;SDS011;31998;48.798;15.066;2023-07-29T02:51:04;2.00;;;2.00;;
46266;SDS011;31998;48.798;15.066;2023-07-29T02:53:29;2.80;;;2.53;;
46266;SDS011;31998;48.798;15.066;2023-07-29T02:55:54;2.80;;;2.23;;
46266;SDS011;31998;48.798;15.066;2023-07-29T02:58:19;2.33;;;2.33;;
46266;SDS011;31998;48.798;15.066;2023-07-29T03:00:45;2.50;;;2.50;;
46266;SDS011;31998;48.798;15.066;2023-07-29T03:03:12;2.30;;;2.03;;
46266;SDS011;31998;48.798;15.066;2023-07-29T03:05:37;2.87;;;2.63;;
46266;SDS011;31998;48.798;15.066;2023-07-29T03:08:03;2.20;;;2.10;;
46266;SDS011;31998;48.798;15.066;2023-07-29T03:10:28;4.67;;;2.90;;
46266;SDS011;31998;48.798;15.066;2023-07-29T03:12:54;3.00;;;2.80;;
46266;SDS011;31998;48.798;15.066;2023-07-29T03:15:22;2.20;;;2.20;;
46266;SDS011;31998;48.798;15.066;2023-07-29T03:17:48;2.50;;;2.40;;
46266;SDS011;31998;48.798;15.066;2023-07-29T03:20:13;3.30;;;3.00;;
46266;SDS011;31998;48.798;15.066;2023-07-29T03:22:38;3.03;;;2.83;;
46266;SDS011;31998;48.798;15.066;2023-07-29T03:25:04;2.73;;;2.63;;
46266;SDS011;31998;48.798;15.066;2023-07-29T03:27:30;2.83;;;2.63;;
46266;SDS011;31998;48.798;15.066;2023-07-29T03:29:59;2.83;;;2.70;;
46266;SDS011;31998;48.798;15.066;2023-07-29T03:32:24;2.30;;;2.20;;
46266;SDS011;31998;48.798;15.066;2023-07-29T03:34:49;2.90;;;2.80;;
46266;SDS011;31998;48.798;15.066;2023-07-29T03:37:15;2.80;;;2.70;;
46266;SDS011;31998;48.798;15.066;2023-07-29T03:39:41;2.33;;;2.33;;
46266;SDS011;31998;48.798;15.066;2023-07-29T03:42:06;3.20;;;3.10;;
46266;SDS011;31998;48.798;15.066;2023-07-29T03:44:31;2.53;;;2.37;;
46266;SDS011;31998;48.798;15.066;2023-07-29T03:46:56;2.67;;;2.57;;
46266;SDS011;31998;48.798;15.066;2023-07-29T03:49:22;2.30;;;2.30;;
46266;SDS011;31998;48.798;15.066;2023-07-29T03:51:47;2.27;;;2.17;;
46266;SDS011;31998;48.798;15.066;2023-07-29T03:54:12;2.67;;;2.57;;
46266;SDS011;31998;48.798;15.066;2023-07-29T03:56:37;6.93;;;2.67;;
46266;SDS011;31998;48.798;15.066;2023-07-29T03:59:03;2.40;;;2.30;;
46266;SDS011;31998;48.798;15.066;2023-07-29T04:01:29;3.10;;;2.80;;
46266;SDS011;31998;48.798;15.066;2023-07-29T04:03:54;2.60;;;2.50;;
46266;SDS011;31998;48.798;15.066;2023-07-29T04:06:19;3.90;;;3.50;;
46266;SDS011;31998;48.798;15.066;2023-07-29T04:08:45;3.20;;;2.60;;
46266;SDS011;31998;48.798;15.066;2023-07-29T04:11:10;2.57;;;2.47;;
46266;SDS011;31998;48.798;15.066;2023-07-29T04:13:35;2.40;;;2.30;;
46266;SDS011;31998;48.798;15.066;2023-07-29T04:16:02;2.47;;;2.37;;
46266;SDS011;31998;48.798;15.066;2023-07-29T04:18:28;2.37;;;2.27;;
46266;SDS011;31998;48.798;15.066;2023-07-29T04:20:53;2.40;;;2.20;;
46266;SDS011;31998;48.798;15.066;2023-07-29T04:23:18;2.43;;;2.33;;
46266;SDS011;31998;48.798;15.066;2023-07-29T04:25:43;2.53;;;2.43;;
46266;SDS011;31998;48.798;15.066;2023-07-29T04:28:08;2.07;;;1.97;;
46266;SDS011;31998;48.798;15.066;2023-07-29T04:30:34;2.90;;;2.80;;
46266;SDS011;31998;48.798;15.066;2023-07-29T04:32:59;2.53;;;2.40;;
46266;SDS011;31998;48.798;15.066;2023-07-29T04:35:24;2.90;;;2.63;;
46266;SDS011;31998;48.798;15.066;2023-07-29T04:37:49;3.23;;;2.17;;
46266;SDS011;31998;48.798;15.066;2023-07-29T04:40:15;2.37;;;2.27;;
46266;SDS011;31998;48.798;15.066;2023-07-29T04:42:40;2.07;;;1.97;;
46266;SDS011;31998;48.798;15.066;2023-07-29T04:45:06;2.93;;;2.67;;
46266;SDS011;31998;48.798;15.066;2023-07-29T04:47:31;5.73;;;1.90;;
46266;SDS011;31998;48.798;15.066;2023-07-29T04:49:56;1.73;;;1.73;;
46266;SDS011;31998;48.798;15.066;2023-07-29T04:52:21;1.87;;;1.77;;
46266;SDS011;31998;48.798;15.066;2023-07-29T04:54:47;2.97;;;1.80;;
46266;SDS011;31998;48.798;15.066;2023-07-29T04:57:12;1.90;;;1.80;;
46266;SDS011;31998;48.798;15.066;2023-07-29T04:59:37;2.23;;;2.17;;
46266;SDS011;31998;48.798;15.066;2023-07-29T05:02:03;2.07;;;1.97;;
46266;SDS011;31998;48.798;15.066;2023-07-29T05:04:28;2.00;;;1.90;;
46266;SDS011;31998;48.798;15.066;2023-07-29T05:06:53;3.73;;;2.10;;
46266;SDS011;31998;48.798;15.066;2023-07-29T05:09:19;6.57;;;1.80;;
46266;SDS011;31998;48.798;15.066;2023-07-29T05:11:45;1.80;;;1.50;;
46266;SDS011;31998;48.798;15.066;2023-07-29T05:14:11;2.33;;;1.90;;
46266;SDS011;31998;48.798;15.066;2023-07-29T05:16:36;2.97;;;1.70;;
46266;SDS011;31998;48.798;15.066;2023-07-29T05:19:01;2.30;;;2.20;;
46266;SDS011;31998;48.798;15.066;2023-07-29T05:21:27;5.40;;;2.67;;
46266;SDS011;31998;48.798;15.066;2023-07-29T05:23:52;1.63;;;1.63;;
46266;SDS011;31998;48.798;15.066;2023-07-29T05:26:17;1.87;;;1.77;;
46266;SDS011;31998;48.798;15.066;2023-07-29T05:28:43;2.70;;;2.07;;
46266;SDS011;31998;48.798;15.066;2023-07-29T05:31:08;3.50;;;3.30;;
46266;SDS011;31998;48.798;15.066;2023-07-29T05:33:33;5.10;;;4.70;;
46266;SDS011;31998;48.798;15.066;2023-07-29T05:35:58;1.50;;;1.50;;
46266;SDS011;31998;48.798;15.066;2023-07-29T05:38:24;7.50;;;5.10;;
46266;SDS011;31998;48.798;15.066;2023-07-29T05:40:49;5.43;;;5.03;;
46266;SDS011;31998;48.798;15.066;2023-07-29T05:43:14;1.70;;;1.60;;
46266;SDS011;31998;48.798;15.066;2023-07-29T05:45:39;6.47;;;4.40;;
46266;SDS011;31998;48.798;15.066;2023-07-29T05:48:05;3.07;;;2.80;;
46266;SDS011;31998;48.798;15.066;2023-07-29T05:50:30;2.37;;;2.27;;
46266;SDS011;31998;48.798;15.066;2023-07-29T05:52:55;1.60;;;1.50;;
46266;SDS011;31998;48.798;15.066;2023-07-29T05:55:20;1.40;;;1.40;;
46266;SDS011;31998;48.798;15.066;2023-07-29T05:57:46;2.00;;;1.90;;
46266;SDS011;31998;48.798;15.066;2023-07-29T06:00:11;1.33;;;1.33;;
46266;SDS011;31998;48.798;15.066;2023-07-29T06:02:36;1.50;;;1.50;;
46266;SDS011;31998;48.798;15.066;2023-07-29T06:05:02;0.97;;;0.97;;
46266;SDS011;31998;48.798;15.066;2023-07-29T06:07:28;1.17;;;1.17;;
46266;SDS011;31998;48.798;15.066;2023-07-29T06:09:55;1.33;;;1.33;;
46266;SDS011;31998;48.798;15.066;2023-07-29T06:12:20;1.40;;;1.40;;
46266;SDS011;31998;48.798;15.066;2023-07-29T06:14:46;1.43;;;1.33;;
46266;SDS011;31998;48.798;15.066;2023-07-29T06:17:11;1.77;;;1.77;;
46266;SDS011;31998;48.798;15.066;2023-07-29T06:19:36;1.17;;;1.17;;
46266;SDS011;31998;48.798;15.066;2023-07-29T06:22:01;1.40;;;1.40;;
46266;SDS011;31998;48.798;15.066;2023-07-29T06:24:27;1.77;;;1.73;;
46266;SDS011;31998;48.798;15.066;2023-07-29T06:26:52;1.63;;;1.60;;
46266;SDS011;31998;48.798;15.066;2023-07-29T06:29:18;0.90;;;0.90;;
46266;SDS011;31998;48.798;15.066;2023-07-29T06:31:43;2.20;;;1.47;;
46266;SDS011;31998;48.798;15.066;2023-07-29T06:34:08;1.73;;;1.43;;
46266;SDS011;31998;48.798;15.066;2023-07-29T06:36:33;1.13;;;1.13;;
46266;SDS011;31998;48.798;15.066;2023-07-29T06:38:58;1.20;;;1.20;;
46266;SDS011;31998;48.798;15.066;2023-07-29T06:41:24;0.90;;;0.90;;
46266;SDS011;31998;48.798;15.066;2023-07-29T06:43:49;0.90;;;0.90;;
46266;SDS011;31998;48.798;15.066;2023-07-29T06:46:14;1.10;;;1.10;;
46266;SDS011;31998;48.798;15.066;2023-07-29T06:48:39;1.23;;;1.23;;
46266;SDS011;31998;48.798;15.066;2023-07-29T06:51:05;1.03;;;1.03;;
46266;SDS011;31998;48.798;15.066;2023-07-29T06:53:30;0.90;;;0.90;;
46266;SDS011;31998;48.798;15.066;2023-07-29T06:55:55;0.80;;;0.80;;
46266;SDS011;31998;48.798;15.066;2023-07-29T06:58:21;0.80;;;0.80;;
46266;SDS011;31998;48.798;15.066;2023-07-29T07:00:46;1.00;;;1.00;;
46266;SDS011;31998;48.798;15.066;2023-07-29T07:03:11;1.00;;;1.00;;
46266;SDS011;31998;48.798;15.066;2023-07-29T07:05:36;1.17;;;1.00;;
46266;SDS011;31998;48.798;15.066;2023-07-29T07:08:02;0.80;;;0.80;;
46266;SDS011;31998;48.798;15.066;2023-07-29T07:10:27;2.30;;;1.20;;
46266;SDS011;31998;48.798;15.066;2023-07-29T07:12:52;0.87;;;0.87;;
46266;SDS011;31998;48.798;15.066;2023-07-29T07:15:17;0.70;;;0.70;;
46266;SDS011;31998;48.798;15.066;2023-07-29T07:17:42;0.90;;;0.90;;
46266;SDS011;31998;48.798;15.066;2023-07-29T07:20:08;0.90;;;0.90;;
46266;SDS011;31998;48.798;15.066;2023-07-29T07:22:33;1.10;;;1.10;;
46266;SDS011;31998;48.798;15.066;2023-07-29T07:24:58;0.77;;;0.77;;
46266;SDS011;31998;48.798;15.066;2023-07-29T07:27:24;0.90;;;0.90;;
46266;SDS011;31998;48.798;15.066;2023-07-29T07:29:49;1.00;;;1.00;;
46266;SDS011;31998;48.798;15.066;2023-07-29T07:32:15;1.00;;;1.00;;
46266;SDS011;31998;48.798;15.066;2023-07-29T07:34:40;0.80;;;0.80;;
46266;SDS011;31998;48.798;15.066;2023-07-29T07:37:05;4.53;;;1.03;;
46266;SDS011;31998;48.798;15.066;2023-07-29T07:39:31;2.10;;;0.83;;
46266;SDS011;31998;48.798;15.066;2023-07-29T07:41:56;0.97;;;0.97;;
46266;SDS011;31998;48.798;15.066;2023-07-29T07:44:21;0.70;;;0.70;;
46266;SDS011;31998;48.798;15.066;2023-07-29T07:46:47;1.43;;;0.90;;
46266;SDS011;31998;48.798;15.066;2023-07-29T07:49:12;0.80;;;0.80;;
46266;SDS011;31998;48.798;15.066;2023-07-29T07:51:38;0.63;;;0.63;;
46266;SDS011;31998;48.798;15.066;2023-07-29T07:54:03;0.60;;;0.60;;
46266;SDS011;31998;48.798;15.066;2023-07-29T07:56:29;0.70;;;0.70;;
46266;SDS011;31998;48.798;15.066;2023-07-29T07:58:54;0.67;;;0.67;;
46266;SDS011;31998;48.798;15.066;2023-07-29T08:01:19;0.70;;;0.70;;
46266;SDS011;31998;48.798;15.066;2023-07-29T08:03:44;1.37;;;0.80;;
46266;SDS011;31998;48.798;15.066;2023-07-29T08:06:10;0.60;;;0.60;;
46266;SDS011;31998;48.798;15.066;2023-07-29T08:08:35;1.07;;;0.80;;
46266;SDS011;31998;48.798;15.066;2023-07-29T08:11:00;0.60;;;0.60;;
46266;SDS011;31998;48.798;15.066;2023-07-29T08:13:26;0.60;;;0.60;;
46266;SDS011;31998;48.798;15.066;2023-07-29T08:15:51;0.50;;;0.50;;
46266;SDS011;31998;48.798;15.066;2023-07-29T08:18:17;0.60;;;0.60;;
46266;SDS011;31998;48.798;15.066;2023-07-29T08:20:55;0.90;;;0.70;;
46266;SDS011;31998;48.798;15.066;2023-07-29T08:23:22;0.63;;;0.63;;
46266;SDS011;31998;48.798;15.066;2023-07-29T08:25:54;1.50;;;0.70;;
46266;SDS011;31998;48.798;15.066;2023-07-29T08:28:21;0.60;;;0.60;;
46266;SDS011;31998;48.798;15.066;2023-07-29T08:30:46;0.50;;;0.50;;
46266;SDS011;31998;48.798;15.066;2023-07-29T08:33:11;7.30;;;0.50;;
46266;SDS011;31998;48.798;15.066;2023-07-29T08:35:37;0.50;;;0.50;;
46266;SDS011;31998;48.798;15.066;2023-07-29T08:38:02;5.40;;;0.67;;
46266;SDS011;31998;48.798;15.066;2023-07-29T08:40:29;0.53;;;0.53;;
46266;SDS011;31998;48.798;15.066;2023-07-29T08:42:54;0.60;;;0.60;;
46266;SDS011;31998;48.798;15.066;2023-07-29T08:45:22;0.70;;;0.70;;
46266;SDS011;31998;48.798;15.066;2023-07-29T08:47:48;0.70;;;0.70;;
46266;SDS011;31998;48.798;15.066;2023-07-29T08:50:15;0.67;;;0.60;;
46266;SDS011;31998;48.798;15.066;2023-07-29T08:52:40;0.60;;;0.60;;
46266;SDS011;31998;48.798;15.066;2023-07-29T08:55:07;0.40;;;0.40;;
46266;SDS011;31998;48.798;15.066;2023-07-29T08:57:32;0.53;;;0.53;;
46266;SDS011;31998;48.798;15.066;2023-07-29T08:59:58;0.60;;;0.60;;
46266;SDS011;31998;48.798;15.066;2023-07-29T09:02:23;0.70;;;0.70;;
46266;SDS011;31998;48.798;15.066;2023-07-29T09:04:48;0.50;;;0.50;;
46266;SDS011;31998;48.798;15.066;2023-07-29T09:07:14;0.40;;;0.40;;
46266;SDS011;31998;48.798;15.066;2023-07-29T09:09:39;1.53;;;0.40;;
46266;SDS011;31998;48.798;15.066;2023-07-29T09:12:05;2.03;;;0.40;;
46266;SDS011;31998;48.798;15.066;2023-07-29T09:14:30;0.50;;;0.50;;
46266;SDS011;31998;48.798;15.066;2023-07-29T09:16:55;5.13;;;0.57;;
46266;SDS011;31998;48.798;15.066;2023-07-29T09:19:21;3.60;;;0.50;;
46266;SDS011;31998;48.798;15.066;2023-07-29T09:21:50;11.53;;;0.50;;
46266;SDS011;31998;48.798;15.066;2023-07-29T09:24:15;2.30;;;0.70;;
46266;SDS011;31998;48.798;15.066;2023-07-29T09:26:41;0.30;;;0.30;;
46266;SDS011;31998;48.798;15.066;2023-07-29T09:29:13;0.50;;;0.50;;
46266;SDS011;31998;48.798;15.066;2023-07-29T09:31:38;0.87;;;0.50;;
46266;SDS011;31998;48.798;15.066;2023-07-29T09:34:04;0.50;;;0.50;;
46266;SDS011;31998;48.798;15.066;2023-07-29T09:36:32;0.57;;;0.57;;
46266;SDS011;31998;48.798;15.066;2023-07-29T09:38:58;3.07;;;0.70;;
46266;SDS011;31998;48.798;15.066;2023-07-29T09:41:24;0.57;;;0.57;;
46266;SDS011;31998;48.798;15.066;2023-07-29T09:43:54;0.50;;;0.50;;
46266;SDS011;31998;48.798;15.066;2023-07-29T09:46:22;0.70;;;0.70;;
46266;SDS011;31998;48.798;15.066;2023-07-29T09:48:47;0.50;;;0.50;;
46266;SDS011;31998;48.798;15.066;2023-07-29T09:51:15;0.50;;;0.50;;
46266;SDS011;31998;48.798;15.066;2023-07-29T09:53:44;0.40;;;0.40;;
46266;SDS011;31998;48.798;15.066;2023-07-29T09:56:09;0.70;;;0.70;;
46266;SDS011;31998;48.798;15.066;2023-07-29T09:58:35;1.37;;;1.30;;
46266;SDS011;31998;48.798;15.066;2023-07-29T10:01:03;0.80;;;0.80;;
46266;SDS011;31998;48.798;15.066;2023-07-29T10:03:28;1.53;;;1.17;;
46266;SDS011;31998;48.798;15.066;2023-07-29T10:05:54;0.40;;;0.40;;
46266;SDS011;31998;48.798;15.066;2023-07-29T10:08:20;0.60;;;0.60;;
46266;SDS011;31998;48.798;15.066;2023-07-29T10:10:47;0.43;;;0.43;;
46266;SDS011;31998;48.798;15.066;2023-07-29T10:13:14;0.60;;;0.60;;
46266;SDS011;31998;48.798;15.066;2023-07-29T10:15:40;0.40;;;0.40;;
46266;SDS011;31998;48.798;15.066;2023-07-29T10:18:05;7.03;;;0.80;;
46266;SDS011;31998;48.798;15.066;2023-07-29T10:20:30;2.60;;;0.60;;
46266;SDS011;31998;48.798;15.066;2023-07-29T10:22:59;0.50;;;0.50;;
46266;SDS011;31998;48.798;15.066;2023-07-29T10:25:24;0.53;;;0.53;;
46266;SDS011;31998;48.798;15.066;2023-07-29T10:27:56;0.60;;;0.60;;
46266;SDS011;31998;48.798;15.066;2023-07-29T10:30:22;0.97;;;0.60;;
46266;SDS011;31998;48.798;15.066;2023-07-29T10:32:49;0.60;;;0.60;;
46266;SDS011;31998;48.798;15.066;2023-07-29T10:35:15;0.70;;;0.70;;
46266;SDS011;31998;48.798;15.066;2023-07-29T10:37:40;0.60;;;0.60;;
46266;SDS011;31998;48.798;15.066;2023-07-29T10:40:07;1.93;;;0.50;;
46266;SDS011;31998;48.798;15.066;2023-07-29T10:42:32;0.80;;;0.80;;
46266;SDS011;31998;48.798;15.066;2023-07-29T10:44:57;0.90;;;0.90;;
46266;SDS011;31998;48.798;15.066;2023-07-29T10:47:24;0.93;;;0.60;;
46266;SDS011;31998;48.798;15.066;2023-07-29T10:49:51;0.50;;;0.50;;
46266;SDS011;31998;48.798;15.066;2023-07-29T10:52:17;0.50;;;0.50;;
46266;SDS011;31998;48.798;15.066;2023-07-29T10:54:52;0.70;;;0.70;;
46266;SDS011;31998;48.798;15.066;2023-07-29T11:00:15;0.93;;;0.93;;
46266;SDS011;31998;48.798;15.066;2023-07-29T11:02:40;2.00;;;1.43;;
46266;SDS011;31998;48.798;15.066;2023-07-29T11:05:26;0.80;;;0.80;;
46266;SDS011;31998;48.798;15.066;2023-07-29T11:07:51;4.20;;;1.37;;
46266;SDS011;31998;48.798;15.066;2023-07-29T11:10:16;2.93;;;1.50;;
46266;SDS011;31998;48.798;15.066;2023-07-29T11:12:48;9.93;;;0.90;;
46266;SDS011;31998;48.798;15.066;2023-07-29T11:15:19;2.50;;;1.07;;
46266;SDS011;31998;48.798;15.066;2023-07-29T11:17:58;1.90;;;0.80;;
46266;SDS011;31998;48.798;15.066;2023-07-29T11:20:24;2.00;;;1.40;;
46266;SDS011;31998;48.798;15.066;2023-07-29T11:22:50;4.43;;;1.83;;
46266;SDS011;31998;48.798;15.066;2023-07-29T11:25:16;3.63;;;2.30;;
46266;SDS011;31998;48.798;15.066;2023-07-29T11:27:42;4.30;;;1.10;;
46266;SDS011;31998;48.798;15.066;2023-07-29T11:30:08;4.30;;;1.17;;
46266;SDS011;31998;48.798;15.066;2023-07-29T11:32:34;1.30;;;1.20;;
46266;SDS011;31998;48.798;15.066;2023-07-29T11:35:04;3.10;;;1.30;;
46266;SDS011;31998;48.798;15.066;2023-07-29T11:37:29;2.50;;;0.80;;
46266;SDS011;31998;48.798;15.066;2023-07-29T11:39:54;2.00;;;1.10;;
46266;SDS011;31998;48.798;15.066;2023-07-29T11:42:19;1.47;;;1.37;;
46266;SDS011;31998;48.798;15.066;2023-07-29T11:44:45;5.07;;;1.30;;
46266;SDS011;31998;48.798;15.066;2023-07-29T11:47:11;0.90;;;0.90;;
46266;SDS011;31998;48.798;15.066;2023-07-29T11:49:38;1.13;;;1.13;;
46266;SDS011;31998;48.798;15.066;2023-07-29T11:52:03;1.00;;;1.00;;
46266;SDS011;31998;48.798;15.066;2023-07-29T11:54:29;5.80;;;1.00;;
46266;SDS011;31998;48.798;15.066;2023-07-29T11:56:54;0.90;;;0.90;;
46266;SDS011;31998;48.798;15.066;2023-07-29T11:59:20;1.00;;;1.00;;
46266;SDS011;31998;48.798;15.066;2023-07-29T12:01:45;0.83;;;0.83;;
46266;SDS011;31998;48.798;15.066;2023-07-29T12:04:10;0.90;;;0.90;;
46266;SDS011;31998;48.798;15.066;2023-07-29T12:06:36;0.83;;;0.83;;
46266;SDS011;31998;48.798;15.066;2023-07-29T12:09:02;1.97;;;0.83;;
46266;SDS011;31998;48.798;15.066;2023-07-29T12:11:27;1.00;;;1.00;;
46266;SDS011;31998;48.798;15.066;2023-07-29T12:13:53;1.03;;;1.03;;
46266;SDS011;31998;48.798;15.066;2023-07-29T12:16:19;1.23;;;1.10;;
46266;SDS011;31998;48.798;15.066;2023-07-29T12:18:45;1.00;;;1.00;;
46266;SDS011;31998;48.798;15.066;2023-07-29T12:21:13;1.47;;;1.30;;
46266;SDS011;31998;48.798;15.066;2023-07-29T12:23:38;0.90;;;0.90;;
46266;SDS011;31998;48.798;15.066;2023-07-29T12:26:04;1.77;;;1.33;;
46266;SDS011;31998;48.798;15.066;2023-07-29T12:28:29;0.77;;;0.77;;
46266;SDS011;31998;48.798;15.066;2023-07-29T12:30:55;0.90;;;0.90;;
46266;SDS011;31998;48.798;15.066;2023-07-29T12:33:33;0.90;;;0.90;;
46266;SDS011;31998;48.798;15.066;2023-07-29T12:35:59;1.20;;;1.20;;
46266;SDS011;31998;48.798;15.066;2023-07-29T12:38:27;1.43;;;1.07;;
46266;SDS011;31998;48.798;15.066;2023-07-29T12:40:53;0.83;;;0.83;;
46266;SDS011;31998;48.798;15.066;2023-07-29T12:43:18;0.70;;;0.70;;
46266;SDS011;31998;48.798;15.066;2023-07-29T12:45:43;1.03;;;1.03;;
46266;SDS011;31998;48.798;15.066;2023-07-29T12:48:09;0.73;;;0.73;;
46266;SDS011;31998;48.798;15.066;2023-07-29T12:50:34;1.07;;;1.07;;
46266;SDS011;31998;48.798;15.066;2023-07-29T12:52:59;0.70;;;0.70;;
46266;SDS011;31998;48.798;15.066;2023-07-29T12:55:25;1.97;;;0.73;;
46266;SDS011;31998;48.798;15.066;2023-07-29T12:57:50;3.03;;;1.10;;
46266;SDS011;31998;48.798;15.066;2023-07-29T13:00:16;1.40;;;1.30;;
46266;SDS011;31998;48.798;15.066;2023-07-29T13:02:41;0.80;;;0.80;;
46266;SDS011;31998;48.798;15.066;2023-07-29T13:05:08;0.90;;;0.70;;
46266;SDS011;31998;48.798;15.066;2023-07-29T13:07:34;0.90;;;0.90;;
46266;SDS011;31998;48.798;15.066;2023-07-29T13:09:59;1.87;;;0.80;;
46266;SDS011;31998;48.798;15.066;2023-07-29T13:12:25;1.27;;;1.27;;
46266;SDS011;31998;48.798;15.066;2023-07-29T13:14:50;0.80;;;0.80;;
46266;SDS011;31998;48.798;15.066;2023-07-29T13:17:15;0.93;;;0.90;;
46266;SDS011;31998;48.798;15.066;2023-07-29T13:19:40;1.00;;;1.00;;
46266;SDS011;31998;48.798;15.066;2023-07-29T13:22:06;0.90;;;0.90;;
46266;SDS011;31998;48.798;15.066;2023-07-29T13:24:31;1.00;;;0.83;;
46266;SDS011;31998;48.798;15.066;2023-07-29T13:26:57;1.23;;;1.10;;
46266;SDS011;31998;48.798;15.066;2023-07-29T13:29:22;0.67;;;0.67;;
46266;SDS011;31998;48.798;15.066;2023-07-29T13:31:48;1.10;;;1.10;;
46266;SDS011;31998;48.798;15.066;2023-07-29T13:34:13;1.07;;;0.90;;
46266;SDS011;31998;48.798;15.066;2023-07-29T13:36:39;1.43;;;1.43;;
46266;SDS011;31998;48.798;15.066;2023-07-29T13:39:04;1.07;;;1.07;;
46266;SDS011;31998;48.798;15.066;2023-07-29T13:41:29;1.33;;;1.20;;
46266;SDS011;31998;48.798;15.066;2023-07-29T13:43:55;1.20;;;1.20;;
46266;SDS011;31998;48.798;15.066;2023-07-29T13:46:20;1.00;;;1.00;;
46266;SDS011;31998;48.798;15.066;2023-07-29T13:48:46;1.30;;;1.20;;
46266;SDS011;31998;48.798;15.066;2023-07-29T13:51:11;1.23;;;1.13;;
46266;SDS011;31998;48.798;15.066;2023-07-29T13:53:36;1.60;;;1.60;;
46266;SDS011;31998;48.798;15.066;2023-07-29T13:56:02;1.30;;;1.30;;
46266;SDS011;31998;48.798;15.066;2023-07-29T13:58:27;1.60;;;1.50;;
46266;SDS011;31998;48.798;15.066;2023-07-29T14:00:52;2.77;;;1.33;;
46266;SDS011;31998;48.798;15.066;2023-07-29T14:03:17;1.40;;;1.40;;
46266;SDS011;31998;48.798;15.066;2023-07-29T14:05:42;1.13;;;1.13;;
46266;SDS011;31998;48.798;15.066;2023-07-29T14:08:08;1.50;;;1.40;;
46266;SDS011;31998;48.798;15.066;2023-07-29T14:10:33;1.57;;;1.13;;
46266;SDS011;31998;48.798;15.066;2023-07-29T14:12:58;1.00;;;0.90;;
46266;SDS011;31998;48.798;15.066;2023-07-29T14:15:23;1.00;;;0.90;;
46266;SDS011;31998;48.798;15.066;2023-07-29T14:17:49;6.33;;;1.40;;
46266;SDS011;31998;48.798;15.066;2023-07-29T14:20:14;1.23;;;1.23;;
46266;SDS011;31998;48.798;15.066;2023-07-29T14:22:39;1.20;;;1.20;;
46266;SDS011;31998;48.798;15.066;2023-07-29T14:25:05;6.00;;;1.90;;
46266;SDS011;31998;48.798;15.066;2023-07-29T14:27:31;4.70;;;1.90;;
46266;SDS011;31998;48.798;15.066;2023-07-29T14:29:56;1.23;;;1.13;;
46266;SDS011;31998;48.798;15.066;2023-07-29T14:32:21;1.10;;;1.10;;